Gooik, Belgium
Current Conditions -  °F | °C
As of 5:25 AM on Sunday 21 Dec 2014 (Local Time) from EBCV Reporting Station
Scattered Clouds Scattered Clouds  
Wind Chill: 32°   Ceiling: Unl
Heat Index: 37°   Visibility: 6mi
Dew Point: 36°   Wind: 7mph
Humidity: 93%   Direction: 210°SSW
Pressure: 30.48"   Gusts: NA
Location:  50.79°N, 4.11°E
Report Text: EBCV 210425Z AUTO 21006KT 9999 FEW041/// SCT210/// 03/02 Q1032 BLU
Loading
Personal Weather Stations






























Interactive Weather Map New forecast layout! Learn more

10-Day Weather Forecast

Advertisements
Track Severe Weather on mobile